Startpagina
METAR-TAF:

METAR-TAF

Vliegvelden :

Luchthaven Dakar

Dakar, Senegal

breedte: 14-44N, lengte: 017-30W, hoogte: 27 m

Actueel weer

Dit bericht is 58 minuten geleden gemaakt, om 11:00 UTC
Wind 12 kt uit het noorden
Temperatuur 24°C
Vochtigheid 54%
Druk 1015 hPa
Zicht 10 km of meer
geen wolken onder 1500 m en geen cumulonimbus

METAR: GOOY 161100Z 36012KT CAVOK 24/14 Q1015

Tijdstip: 11:58 (11:58 UTC)

Verwachting

Dit bericht is 28 minuten geleden gemaakt, om 11:30 UTC
Verwachting geldig van 16 om 12 UTC tot 17 om 18 UTC
Wind 12 kt uit het noordnoordoosten
Zicht 10 km of meer
geen wolken onder 1500 m en geen cumulonimbus

TAF: GOOY 161130Z 1612/1718 02012KT CAVOK

Waarnemingen en weersverwachtingen van meer dan 4000 vliegvelden (METAR en TAF).

De beschikbare stations zijn de gele en rode punten op de kaart.

Ga met uw muis naar het station om de naam te zien.

Klik dan om waarnemingen en weersverwachtingen te zien.

kaart wijzigen: klik op de groene knoppen met een zwart kruis om in te zoomen, op de groene knop met een streepje om uit te zoomen of op de groene pijlen voor aangrenzende kaarten.


METAR-TAF: